sensor_id;sensor_type;location;lat;lon;timestamp;P1;durP1;ratioP1;P2;durP2;ratioP2
77206;SDS011;66190;50.708;7.906;2022-12-29T00:00:05;5.53;;;1.50;;
77206;SDS011;66190;50.708;7.906;2022-12-29T00:02:32;6.10;;;1.50;;
77206;SDS011;66190;50.708;7.906;2022-12-29T00:04:57;6.57;;;1.70;;
77206;SDS011;66190;50.708;7.906;2022-12-29T00:07:23;5.95;;;1.67;;
77206;SDS011;66190;50.708;7.906;2022-12-29T00:09:49;5.30;;;1.87;;
77206;SDS011;66190;50.708;7.906;2022-12-29T00:12:14;4.53;;;1.42;;
77206;SDS011;66190;50.708;7.906;2022-12-29T00:14:40;4.63;;;1.30;;
77206;SDS011;66190;50.708;7.906;2022-12-29T00:17:24;5.90;;;1.60;;
77206;SDS011;66190;50.708;7.906;2022-12-29T00:19:50;5.20;;;1.53;;
77206;SDS011;66190;50.708;7.906;2022-12-29T00:22:34;7.90;;;1.40;;
77206;SDS011;66190;50.708;7.906;2022-12-29T00:25:18;4.82;;;1.17;;
77206;SDS011;66190;50.708;7.906;2022-12-29T00:28:02;4.70;;;1.40;;
77206;SDS011;66190;50.708;7.906;2022-12-29T00:30:46;5.80;;;1.80;;
77206;SDS011;66190;50.708;7.906;2022-12-29T00:33:31;4.88;;;1.30;;
77206;SDS011;66190;50.708;7.906;2022-12-29T00:39:02;5.55;;;1.33;;
77206;SDS011;66190;50.708;7.906;2022-12-29T00:41:50;6.30;;;1.70;;
77206;SDS011;66190;50.708;7.906;2022-12-29T00:44:34;4.88;;;1.33;;
77206;SDS011;66190;50.708;7.906;2022-12-29T00:46:59;5.47;;;1.65;;
77206;SDS011;66190;50.708;7.906;2022-12-29T00:49:29;6.38;;;1.58;;
77206;SDS011;66190;50.708;7.906;2022-12-29T00:51:56;5.15;;;1.40;;
77206;SDS011;66190;50.708;7.906;2022-12-29T00:54:24;5.38;;;1.30;;
77206;SDS011;66190;50.708;7.906;2022-12-29T00:56:50;5.60;;;1.10;;
77206;SDS011;66190;50.708;7.906;2022-12-29T00:59:17;5.85;;;1.40;;
77206;SDS011;66190;50.708;7.906;2022-12-29T01:01:43;5.15;;;1.38;;
77206;SDS011;66190;50.708;7.906;2022-12-29T01:04:10;4.63;;;1.30;;
77206;SDS011;66190;50.708;7.906;2022-12-29T01:06:37;6.20;;;1.35;;
77206;SDS011;66190;50.708;7.906;2022-12-29T01:09:05;5.65;;;1.60;;
77206;SDS011;66190;50.708;7.906;2022-12-29T01:11:50;4.22;;;1.15;;
77206;SDS011;66190;50.708;7.906;2022-12-29T01:14:16;5.97;;;1.43;;
77206;SDS011;66190;50.708;7.906;2022-12-29T01:16:42;4.85;;;1.30;;
77206;SDS011;66190;50.708;7.906;2022-12-29T01:19:08;6.03;;;1.42;;
77206;SDS011;66190;50.708;7.906;2022-12-29T01:21:33;5.20;;;1.42;;
77206;SDS011;66190;50.708;7.906;2022-12-29T01:23:59;4.45;;;1.00;;
77206;SDS011;66190;50.708;7.906;2022-12-29T01:26:25;5.05;;;1.70;;
77206;SDS011;66190;50.708;7.906;2022-12-29T01:28:50;4.47;;;1.23;;
77206;SDS011;66190;50.708;7.906;2022-12-29T01:31:16;4.88;;;1.75;;
77206;SDS011;66190;50.708;7.906;2022-12-29T01:33:42;5.57;;;1.35;;
77206;SDS011;66190;50.708;7.906;2022-12-29T01:36:09;4.32;;;1.17;;
77206;SDS011;66190;50.708;7.906;2022-12-29T01:38:37;4.78;;;1.10;;
77206;SDS011;66190;50.708;7.906;2022-12-29T01:41:04;4.72;;;0.90;;
77206;SDS011;66190;50.708;7.906;2022-12-29T01:48:55;4.32;;;1.00;;
77206;SDS011;66190;50.708;7.906;2022-12-29T01:51:29;6.75;;;1.20;;
77206;SDS011;66190;50.708;7.906;2022-12-29T01:53:58;5.00;;;1.00;;
77206;SDS011;66190;50.708;7.906;2022-12-29T01:56:27;4.55;;;1.15;;
77206;SDS011;66190;50.708;7.906;2022-12-29T01:58:58;4.77;;;1.20;;
77206;SDS011;66190;50.708;7.906;2022-12-29T02:01:27;4.65;;;1.00;;
77206;SDS011;66190;50.708;7.906;2022-12-29T02:03:53;5.10;;;1.23;;
77206;SDS011;66190;50.708;7.906;2022-12-29T02:06:22;5.33;;;1.23;;
77206;SDS011;66190;50.708;7.906;2022-12-29T02:08:53;4.50;;;1.23;;
77206;SDS011;66190;50.708;7.906;2022-12-29T02:11:21;4.03;;;1.20;;
77206;SDS011;66190;50.708;7.906;2022-12-29T02:13:49;4.43;;;1.42;;
77206;SDS011;66190;50.708;7.906;2022-12-29T02:16:25;4.80;;;1.17;;
77206;SDS011;66190;50.708;7.906;2022-12-29T02:24:25;5.97;;;2.00;;
77206;SDS011;66190;50.708;7.906;2022-12-29T02:30:42;4.47;;;1.10;;
77206;SDS011;66190;50.708;7.906;2022-12-29T02:33:07;4.38;;;1.15;;
77206;SDS011;66190;50.708;7.906;2022-12-29T02:41:39;4.47;;;1.10;;
77206;SDS011;66190;50.708;7.906;2022-12-29T02:52:30;6.20;;;1.63;;
77206;SDS011;66190;50.708;7.906;2022-12-29T02:55:00;5.27;;;1.20;;
77206;SDS011;66190;50.708;7.906;2022-12-29T03:00:03;4.30;;;1.30;;
77206;SDS011;66190;50.708;7.906;2022-12-29T03:03:01;5.13;;;1.20;;
77206;SDS011;66190;50.708;7.906;2022-12-29T03:08:49;4.43;;;1.25;;
77206;SDS011;66190;50.708;7.906;2022-12-29T03:11:25;4.93;;;1.60;;
77206;SDS011;66190;50.708;7.906;2022-12-29T03:14:29;4.88;;;0.90;;
77206;SDS011;66190;50.708;7.906;2022-12-29T03:18:44;4.07;;;1.20;;
77206;SDS011;66190;50.708;7.906;2022-12-29T03:21:05;5.20;;;1.40;;
77206;SDS011;66190;50.708;7.906;2022-12-29T03:23:37;4.40;;;1.00;;
77206;SDS011;66190;50.708;7.906;2022-12-29T03:26:06;4.75;;;1.10;;
77206;SDS011;66190;50.708;7.906;2022-12-29T03:28:36;4.18;;;1.17;;
77206;SDS011;66190;50.708;7.906;2022-12-29T03:31:06;4.67;;;1.07;;
77206;SDS011;66190;50.708;7.906;2022-12-29T03:33:34;4.72;;;1.10;;
77206;SDS011;66190;50.708;7.906;2022-12-29T03:36:03;4.95;;;1.20;;
77206;SDS011;66190;50.708;7.906;2022-12-29T03:41:07;4.75;;;1.02;;
77206;SDS011;66190;50.708;7.906;2022-12-29T03:43:35;3.53;;;0.70;;
77206;SDS011;66190;50.708;7.906;2022-12-29T03:46:02;5.13;;;1.00;;
77206;SDS011;66190;50.708;7.906;2022-12-29T03:48:27;5.38;;;1.00;;
77206;SDS011;66190;50.708;7.906;2022-12-29T03:50:53;4.00;;;1.00;;
77206;SDS011;66190;50.708;7.906;2022-12-29T03:53:19;3.90;;;0.97;;
77206;SDS011;66190;50.708;7.906;2022-12-29T03:55:44;4.07;;;0.95;;
77206;SDS011;66190;50.708;7.906;2022-12-29T03:58:10;4.97;;;1.10;;
77206;SDS011;66190;50.708;7.906;2022-12-29T04:00:36;4.95;;;1.13;;
77206;SDS011;66190;50.708;7.906;2022-12-29T04:03:01;3.90;;;0.90;;
77206;SDS011;66190;50.708;7.906;2022-12-29T04:05:27;4.15;;;1.02;;
77206;SDS011;66190;50.708;7.906;2022-12-29T04:07:53;3.73;;;0.80;;
77206;SDS011;66190;50.708;7.906;2022-12-29T04:10:18;5.10;;;0.93;;
77206;SDS011;66190;50.708;7.906;2022-12-29T04:12:44;4.20;;;0.90;;
77206;SDS011;66190;50.708;7.906;2022-12-29T04:15:11;5.18;;;1.13;;
77206;SDS011;66190;50.708;7.906;2022-12-29T04:17:37;4.45;;;1.10;;
77206;SDS011;66190;50.708;7.906;2022-12-29T04:20:03;5.32;;;1.70;;
77206;SDS011;66190;50.708;7.906;2022-12-29T04:22:47;5.38;;;1.30;;
77206;SDS011;66190;50.708;7.906;2022-12-29T04:25:13;5.50;;;1.43;;
77206;SDS011;66190;50.708;7.906;2022-12-29T04:27:39;6.28;;;1.60;;
77206;SDS011;66190;50.708;7.906;2022-12-29T04:30:04;4.80;;;1.42;;
77206;SDS011;66190;50.708;7.906;2022-12-29T04:32:30;6.90;;;1.70;;
77206;SDS011;66190;50.708;7.906;2022-12-29T04:34:56;6.37;;;1.57;;
77206;SDS011;66190;50.708;7.906;2022-12-29T04:37:22;5.50;;;1.90;;
77206;SDS011;66190;50.708;7.906;2022-12-29T04:39:47;6.63;;;1.87;;
77206;SDS011;66190;50.708;7.906;2022-12-29T04:42:13;5.43;;;1.60;;
77206;SDS011;66190;50.708;7.906;2022-12-29T04:44:39;7.10;;;1.75;;
77206;SDS011;66190;50.708;7.906;2022-12-29T04:47:04;6.23;;;2.10;;
77206;SDS011;66190;50.708;7.906;2022-12-29T04:49:30;6.65;;;2.20;;
77206;SDS011;66190;50.708;7.906;2022-12-29T04:51:55;6.20;;;2.20;;
77206;SDS011;66190;50.708;7.906;2022-12-29T04:54:21;6.10;;;1.65;;
77206;SDS011;66190;50.708;7.906;2022-12-29T04:56:47;6.70;;;2.13;;
77206;SDS011;66190;50.708;7.906;2022-12-29T04:59:13;5.03;;;1.42;;
77206;SDS011;66190;50.708;7.906;2022-12-29T05:01:38;5.87;;;1.70;;
77206;SDS011;66190;50.708;7.906;2022-12-29T05:04:04;5.25;;;1.92;;
77206;SDS011;66190;50.708;7.906;2022-12-29T05:06:30;4.10;;;1.30;;
77206;SDS011;66190;50.708;7.906;2022-12-29T05:08:55;5.50;;;1.50;;
77206;SDS011;66190;50.708;7.906;2022-12-29T05:11:21;5.22;;;1.83;;
77206;SDS011;66190;50.708;7.906;2022-12-29T05:13:46;5.53;;;1.37;;
77206;SDS011;66190;50.708;7.906;2022-12-29T05:16:12;5.53;;;1.55;;
77206;SDS011;66190;50.708;7.906;2022-12-29T05:18:38;5.07;;;1.80;;
77206;SDS011;66190;50.708;7.906;2022-12-29T05:21:03;6.30;;;1.90;;
77206;SDS011;66190;50.708;7.906;2022-12-29T05:23:29;6.80;;;2.03;;
77206;SDS011;66190;50.708;7.906;2022-12-29T05:25:55;6.60;;;2.30;;
77206;SDS011;66190;50.708;7.906;2022-12-29T05:28:20;5.57;;;1.90;;
77206;SDS011;66190;50.708;7.906;2022-12-29T05:30:49;6.87;;;2.43;;
77206;SDS011;66190;50.708;7.906;2022-12-29T05:33:16;7.10;;;2.20;;
77206;SDS011;66190;50.708;7.906;2022-12-29T05:35:45;7.47;;;2.08;;
77206;SDS011;66190;50.708;7.906;2022-12-29T05:38:11;6.53;;;2.43;;
77206;SDS011;66190;50.708;7.906;2022-12-29T05:40:36;7.30;;;2.60;;
77206;SDS011;66190;50.708;7.906;2022-12-29T05:43:02;7.67;;;2.33;;
77206;SDS011;66190;50.708;7.906;2022-12-29T05:45:28;6.97;;;2.08;;
77206;SDS011;66190;50.708;7.906;2022-12-29T05:47:53;7.00;;;2.60;;
77206;SDS011;66190;50.708;7.906;2022-12-29T05:50:19;6.50;;;2.20;;
77206;SDS011;66190;50.708;7.906;2022-12-29T05:52:45;6.43;;;1.97;;
77206;SDS011;66190;50.708;7.906;2022-12-29T05:55:11;5.55;;;1.65;;
77206;SDS011;66190;50.708;7.906;2022-12-29T05:57:37;5.53;;;1.90;;
77206;SDS011;66190;50.708;7.906;2022-12-29T06:00:03;7.13;;;2.00;;
77206;SDS011;66190;50.708;7.906;2022-12-29T06:02:29;5.65;;;2.20;;
77206;SDS011;66190;50.708;7.906;2022-12-29T06:04:55;7.05;;;1.70;;
77206;SDS011;66190;50.708;7.906;2022-12-29T06:07:21;8.73;;;2.08;;
77206;SDS011;66190;50.708;7.906;2022-12-29T06:09:46;7.07;;;2.07;;
77206;SDS011;66190;50.708;7.906;2022-12-29T06:12:12;6.60;;;2.10;;
77206;SDS011;66190;50.708;7.906;2022-12-29T06:14:38;5.83;;;1.90;;
77206;SDS011;66190;50.708;7.906;2022-12-29T06:17:03;6.00;;;1.90;;
77206;SDS011;66190;50.708;7.906;2022-12-29T06:19:29;5.40;;;1.40;;
77206;SDS011;66190;50.708;7.906;2022-12-29T06:21:54;7.37;;;1.90;;
77206;SDS011;66190;50.708;7.906;2022-12-29T06:24:20;6.55;;;1.88;;
77206;SDS011;66190;50.708;7.906;2022-12-29T06:26:46;7.68;;;1.98;;
77206;SDS011;66190;50.708;7.906;2022-12-29T06:29:12;6.03;;;1.47;;
77206;SDS011;66190;50.708;7.906;2022-12-29T06:31:41;7.07;;;1.75;;
77206;SDS011;66190;50.708;7.906;2022-12-29T06:34:08;7.22;;;2.03;;
77206;SDS011;66190;50.708;7.906;2022-12-29T06:36:34;8.77;;;1.90;;
77206;SDS011;66190;50.708;7.906;2022-12-29T06:38:59;5.07;;;1.60;;
77206;SDS011;66190;50.708;7.906;2022-12-29T06:41:25;6.57;;;2.20;;
77206;SDS011;66190;50.708;7.906;2022-12-29T06:43:51;6.00;;;1.97;;
77206;SDS011;66190;50.708;7.906;2022-12-29T06:46:17;6.22;;;1.80;;
77206;SDS011;66190;50.708;7.906;2022-12-29T06:48:42;5.37;;;1.70;;
77206;SDS011;66190;50.708;7.906;2022-12-29T06:51:08;5.22;;;1.63;;
77206;SDS011;66190;50.708;7.906;2022-12-29T06:53:33;6.30;;;1.70;;
77206;SDS011;66190;50.708;7.906;2022-12-29T06:55:59;5.90;;;1.98;;
77206;SDS011;66190;50.708;7.906;2022-12-29T06:58:25;7.43;;;3.73;;
77206;SDS011;66190;50.708;7.906;2022-12-29T07:00:50;6.32;;;2.25;;
77206;SDS011;66190;50.708;7.906;2022-12-29T07:03:16;7.55;;;2.75;;
77206;SDS011;66190;50.708;7.906;2022-12-29T07:05:41;5.93;;;2.20;;
77206;SDS011;66190;50.708;7.906;2022-12-29T07:08:07;6.28;;;2.63;;
77206;SDS011;66190;50.708;7.906;2022-12-29T07:10:33;6.40;;;2.47;;
77206;SDS011;66190;50.708;7.906;2022-12-29T07:12:59;6.75;;;2.67;;
77206;SDS011;66190;50.708;7.906;2022-12-29T07:15:24;7.00;;;2.40;;
77206;SDS011;66190;50.708;7.906;2022-12-29T07:17:50;5.28;;;1.55;;
77206;SDS011;66190;50.708;7.906;2022-12-29T07:20:16;6.70;;;2.30;;
77206;SDS011;66190;50.708;7.906;2022-12-29T07:22:42;6.25;;;1.70;;
77206;SDS011;66190;50.708;7.906;2022-12-29T07:25:07;6.87;;;1.47;;
77206;SDS011;66190;50.708;7.906;2022-12-29T07:27:33;5.68;;;1.73;;
77206;SDS011;66190;50.708;7.906;2022-12-29T07:29:59;4.80;;;1.30;;
77206;SDS011;66190;50.708;7.906;2022-12-29T07:32:24;5.95;;;1.90;;
77206;SDS011;66190;50.708;7.906;2022-12-29T07:34:50;5.83;;;1.70;;
77206;SDS011;66190;50.708;7.906;2022-12-29T07:37:16;4.35;;;1.20;;
77206;SDS011;66190;50.708;7.906;2022-12-29T07:39:42;5.90;;;0.93;;
77206;SDS011;66190;50.708;7.906;2022-12-29T07:42:08;4.63;;;1.00;;
77206;SDS011;66190;50.708;7.906;2022-12-29T07:44:33;6.37;;;1.20;;
77206;SDS011;66190;50.708;7.906;2022-12-29T07:46:59;3.97;;;0.90;;
77206;SDS011;66190;50.708;7.906;2022-12-29T07:49:25;4.83;;;0.90;;
77206;SDS011;66190;50.708;7.906;2022-12-29T07:51:50;4.18;;;1.23;;
77206;SDS011;66190;50.708;7.906;2022-12-29T07:54:16;3.60;;;0.70;;
77206;SDS011;66190;50.708;7.906;2022-12-29T07:56:43;3.53;;;0.60;;
77206;SDS011;66190;50.708;7.906;2022-12-29T07:59:09;2.90;;;0.70;;
77206;SDS011;66190;50.708;7.906;2022-12-29T08:01:36;3.20;;;0.90;;
77206;SDS011;66190;50.708;7.906;2022-12-29T08:04:02;2.88;;;0.55;;
77206;SDS011;66190;50.708;7.906;2022-12-29T08:06:28;3.95;;;0.80;;
77206;SDS011;66190;50.708;7.906;2022-12-29T08:08:55;3.28;;;0.82;;
77206;SDS011;66190;50.708;7.906;2022-12-29T08:11:22;3.50;;;0.70;;
77206;SDS011;66190;50.708;7.906;2022-12-29T08:13:47;4.47;;;1.00;;
77206;SDS011;66190;50.708;7.906;2022-12-29T08:16:13;3.30;;;0.70;;
77206;SDS011;66190;50.708;7.906;2022-12-29T08:18:39;5.20;;;1.00;;
77206;SDS011;66190;50.708;7.906;2022-12-29T08:21:04;4.27;;;1.07;;
77206;SDS011;66190;50.708;7.906;2022-12-29T08:23:30;3.80;;;1.10;;
77206;SDS011;66190;50.708;7.906;2022-12-29T08:25:57;2.70;;;0.68;;
77206;SDS011;66190;50.708;7.906;2022-12-29T08:28:27;4.78;;;1.00;;
77206;SDS011;66190;50.708;7.906;2022-12-29T08:30:53;4.07;;;0.90;;
77206;SDS011;66190;50.708;7.906;2022-12-29T08:33:19;5.15;;;1.00;;
77206;SDS011;66190;50.708;7.906;2022-12-29T08:35:44;5.22;;;0.93;;
77206;SDS011;66190;50.708;7.906;2022-12-29T08:38:10;3.20;;;0.60;;
77206;SDS011;66190;50.708;7.906;2022-12-29T08:40:38;4.47;;;1.00;;
77206;SDS011;66190;50.708;7.906;2022-12-29T08:43:04;5.10;;;0.90;;
77206;SDS011;66190;50.708;7.906;2022-12-29T08:45:30;4.10;;;0.70;;
77206;SDS011;66190;50.708;7.906;2022-12-29T08:47:56;3.40;;;0.80;;
77206;SDS011;66190;50.708;7.906;2022-12-29T08:50:22;7.45;;;3.10;;
77206;SDS011;66190;50.708;7.906;2022-12-29T08:52:47;4.70;;;1.50;;
77206;SDS011;66190;50.708;7.906;2022-12-29T08:55:13;7.00;;;2.72;;
77206;SDS011;66190;50.708;7.906;2022-12-29T08:57:39;5.40;;;1.23;;
77206;SDS011;66190;50.708;7.906;2022-12-29T09:00:05;6.85;;;1.95;;
77206;SDS011;66190;50.708;7.906;2022-12-29T09:02:31;4.45;;;1.10;;
77206;SDS011;66190;50.708;7.906;2022-12-29T09:04:57;3.73;;;0.70;;
77206;SDS011;66190;50.708;7.906;2022-12-29T09:07:23;3.28;;;0.80;;
77206;SDS011;66190;50.708;7.906;2022-12-29T09:09:48;2.78;;;0.60;;
77206;SDS011;66190;50.708;7.906;2022-12-29T09:12:15;2.95;;;0.50;;
77206;SDS011;66190;50.708;7.906;2022-12-29T09:14:41;3.80;;;0.70;;
77206;SDS011;66190;50.708;7.906;2022-12-29T09:17:08;3.97;;;0.70;;
77206;SDS011;66190;50.708;7.906;2022-12-29T09:19:52;5.00;;;1.17;;
77206;SDS011;66190;50.708;7.906;2022-12-29T09:22:18;4.13;;;0.60;;
77206;SDS011;66190;50.708;7.906;2022-12-29T09:24:44;4.47;;;1.17;;
77206;SDS011;66190;50.708;7.906;2022-12-29T09:27:09;5.72;;;1.30;;
77206;SDS011;66190;50.708;7.906;2022-12-29T09:29:35;5.77;;;0.87;;
77206;SDS011;66190;50.708;7.906;2022-12-29T09:32:00;3.13;;;0.60;;
77206;SDS011;66190;50.708;7.906;2022-12-29T09:34:26;8.63;;;1.40;;
77206;SDS011;66190;50.708;7.906;2022-12-29T09:36:52;4.43;;;1.20;;
77206;SDS011;66190;50.708;7.906;2022-12-29T09:39:18;5.73;;;1.30;;
77206;SDS011;66190;50.708;7.906;2022-12-29T09:41:49;7.82;;;1.60;;
77206;SDS011;66190;50.708;7.906;2022-12-29T09:44:43;5.67;;;1.23;;
77206;SDS011;66190;50.708;7.906;2022-12-29T09:47:17;7.40;;;1.52;;
77206;SDS011;66190;50.708;7.906;2022-12-29T09:52:37;6.97;;;2.38;;
77206;SDS011;66190;50.708;7.906;2022-12-29T09:55:34;5.72;;;1.95;;
77206;SDS011;66190;50.708;7.906;2022-12-29T10:00:52;6.50;;;1.70;;
77206;SDS011;66190;50.708;7.906;2022-12-29T10:03:22;6.25;;;1.80;;
77206;SDS011;66190;50.708;7.906;2022-12-29T10:05:56;8.32;;;2.10;;
77206;SDS011;66190;50.708;7.906;2022-12-29T10:13:43;8.07;;;1.63;;
77206;SDS011;66190;50.708;7.906;2022-12-29T10:16:32;6.75;;;1.30;;
77206;SDS011;66190;50.708;7.906;2022-12-29T10:19:28;5.90;;;1.30;;
77206;SDS011;66190;50.708;7.906;2022-12-29T10:22:09;6.13;;;1.60;;
77206;SDS011;66190;50.708;7.906;2022-12-29T10:24:55;4.85;;;1.60;;
77206;SDS011;66190;50.708;7.906;2022-12-29T10:27:27;6.35;;;1.48;;
77206;SDS011;66190;50.708;7.906;2022-12-29T10:29:56;6.15;;;1.67;;
77206;SDS011;66190;50.708;7.906;2022-12-29T10:32:27;8.93;;;1.90;;
77206;SDS011;66190;50.708;7.906;2022-12-29T10:35:10;7.95;;;2.58;;
77206;SDS011;66190;50.708;7.906;2022-12-29T10:37:43;6.88;;;2.80;;
77206;SDS011;66190;50.708;7.906;2022-12-29T10:43:04;5.80;;;1.25;;
77206;SDS011;66190;50.708;7.906;2022-12-29T10:45:41;6.00;;;1.00;;
77206;SDS011;66190;50.708;7.906;2022-12-29T10:48:12;3.45;;;0.68;;
77206;SDS011;66190;50.708;7.906;2022-12-29T10:50:45;6.63;;;1.58;;
77206;SDS011;66190;50.708;7.906;2022-12-29T10:53:15;5.50;;;1.25;;
77206;SDS011;66190;50.708;7.906;2022-12-29T10:55:48;7.33;;;1.50;;
77206;SDS011;66190;50.708;7.906;2022-12-29T10:58:15;6.22;;;1.15;;
77206;SDS011;66190;50.708;7.906;2022-12-29T11:00:41;8.45;;;1.35;;
77206;SDS011;66190;50.708;7.906;2022-12-29T11:08:38;5.37;;;0.70;;
77206;SDS011;66190;50.708;7.906;2022-12-29T11:11:10;6.47;;;1.00;;
77206;SDS011;66190;50.708;7.906;2022-12-29T11:13:49;5.43;;;0.95;;
77206;SDS011;66190;50.708;7.906;2022-12-29T11:16:31;3.87;;;0.60;;
77206;SDS011;66190;50.708;7.906;2022-12-29T11:18:59;6.65;;;1.17;;
77206;SDS011;66190;50.708;7.906;2022-12-29T11:21:33;7.25;;;1.42;;
77206;SDS011;66190;50.708;7.906;2022-12-29T11:24:08;5.60;;;0.93;;
77206;SDS011;66190;50.708;7.906;2022-12-29T11:26:54;6.32;;;0.75;;
77206;SDS011;66190;50.708;7.906;2022-12-29T11:29:36;3.47;;;0.77;;
77206;SDS011;66190;50.708;7.906;2022-12-29T11:32:11;4.13;;;0.88;;
77206;SDS011;66190;50.708;7.906;2022-12-29T11:34:42;3.50;;;0.70;;
77206;SDS011;66190;50.708;7.906;2022-12-29T11:37:12;6.30;;;1.35;;
77206;SDS011;66190;50.708;7.906;2022-12-29T11:42:33;4.90;;;0.77;;
77206;SDS011;66190;50.708;7.906;2022-12-29T11:45:21;5.43;;;0.77;;
77206;SDS011;66190;50.708;7.906;2022-12-29T11:47:50;7.55;;;0.70;;
77206;SDS011;66190;50.708;7.906;2022-12-29T11:50:22;6.95;;;0.77;;
77206;SDS011;66190;50.708;7.906;2022-12-29T11:53:05;4.93;;;0.90;;
77206;SDS011;66190;50.708;7.906;2022-12-29T11:55:51;5.15;;;0.95;;
77206;SDS011;66190;50.708;7.906;2022-12-29T11:58:29;5.13;;;1.10;;
77206;SDS011;66190;50.708;7.906;2022-12-29T12:00:57;6.70;;;1.20;;
77206;SDS011;66190;50.708;7.906;2022-12-29T12:03:29;7.70;;;1.00;;
77206;SDS011;66190;50.708;7.906;2022-12-29T12:06:07;5.45;;;0.93;;
77206;SDS011;66190;50.708;7.906;2022-12-29T12:08:48;3.38;;;0.70;;
77206;SDS011;66190;50.708;7.906;2022-12-29T12:14:00;4.95;;;0.65;;
77206;SDS011;66190;50.708;7.906;2022-12-29T12:16:55;5.88;;;0.93;;
77206;SDS011;66190;50.708;7.906;2022-12-29T12:19:32;5.15;;;0.80;;
77206;SDS011;66190;50.708;7.906;2022-12-29T12:25:20;5.57;;;1.08;;
77206;SDS011;66190;50.708;7.906;2022-12-29T12:27:53;5.68;;;0.80;;
77206;SDS011;66190;50.708;7.906;2022-12-29T12:30:37;7.40;;;1.15;;
77206;SDS011;66190;50.708;7.906;2022-12-29T12:33:18;4.07;;;0.70;;
77206;SDS011;66190;50.708;7.906;2022-12-29T12:41:53;6.05;;;1.17;;
77206;SDS011;66190;50.708;7.906;2022-12-29T12:44:43;5.22;;;0.77;;
77206;SDS011;66190;50.708;7.906;2022-12-29T12:50:11;6.97;;;0.98;;
77206;SDS011;66190;50.708;7.906;2022-12-29T12:52:46;8.10;;;1.17;;
77206;SDS011;66190;50.708;7.906;2022-12-29T12:55:41;5.35;;;0.80;;
77206;SDS011;66190;50.708;7.906;2022-12-29T12:58:27;9.18;;;1.05;;
77206;SDS011;66190;50.708;7.906;2022-12-29T13:01:18;11.52;;;1.70;;
77206;SDS011;66190;50.708;7.906;2022-12-29T13:15:59;6.70;;;0.88;;
77206;SDS011;66190;50.708;7.906;2022-12-29T13:18:29;4.72;;;0.60;;
77206;SDS011;66190;50.708;7.906;2022-12-29T13:23:52;6.47;;;1.20;;
77206;SDS011;66190;50.708;7.906;2022-12-29T13:26:32;7.82;;;0.90;;
77206;SDS011;66190;50.708;7.906;2022-12-29T13:29:23;7.75;;;1.55;;
77206;SDS011;66190;50.708;7.906;2022-12-29T13:37:47;4.47;;;1.30;;
77206;SDS011;66190;50.708;7.906;2022-12-29T13:40:18;7.07;;;1.80;;
77206;SDS011;66190;50.708;7.906;2022-12-29T13:42:49;7.97;;;2.05;;
77206;SDS011;66190;50.708;7.906;2022-12-29T13:45:17;6.72;;;1.77;;
77206;SDS011;66190;50.708;7.906;2022-12-29T13:50:33;11.38;;;2.13;;
77206;SDS011;66190;50.708;7.906;2022-12-29T13:53:19;6.05;;;1.58;;
77206;SDS011;66190;50.708;7.906;2022-12-29T13:58:33;7.40;;;1.10;;
77206;SDS011;66190;50.708;7.906;2022-12-29T14:03:52;7.65;;;1.50;;
77206;SDS011;66190;50.708;7.906;2022-12-29T14:06:27;9.38;;;1.58;;
77206;SDS011;66190;50.708;7.906;2022-12-29T14:08:55;8.68;;;2.10;;
77206;SDS011;66190;50.708;7.906;2022-12-29T14:11:24;6.70;;;1.20;;
77206;SDS011;66190;50.708;7.906;2022-12-29T14:14:00;7.53;;;0.90;;
77206;SDS011;66190;50.708;7.906;2022-12-29T14:16:52;6.30;;;1.40;;
77206;SDS011;66190;50.708;7.906;2022-12-29T14:19:29;8.30;;;1.60;;
77206;SDS011;66190;50.708;7.906;2022-12-29T14:21:57;6.32;;;1.30;;
77206;SDS011;66190;50.708;7.906;2022-12-29T14:27:00;5.85;;;1.08;;
77206;SDS011;66190;50.708;7.906;2022-12-29T14:29:50;6.95;;;1.10;;
77206;SDS011;66190;50.708;7.906;2022-12-29T14:37:35;7.38;;;0.95;;
77206;SDS011;66190;50.708;7.906;2022-12-29T14:42:50;9.43;;;1.40;;
77206;SDS011;66190;50.708;7.906;2022-12-29T14:47:44;6.82;;;2.00;;
77206;SDS011;66190;50.708;7.906;2022-12-29T14:55:44;6.95;;;1.52;;
77206;SDS011;66190;50.708;7.906;2022-12-29T14:58:20;6.43;;;1.00;;
77206;SDS011;66190;50.708;7.906;2022-12-29T15:00:51;4.47;;;0.80;;
77206;SDS011;66190;50.708;7.906;2022-12-29T15:06:03;7.57;;;1.27;;
77206;SDS011;66190;50.708;7.906;2022-12-29T15:11:23;7.25;;;0.98;;
77206;SDS011;66190;50.708;7.906;2022-12-29T15:14:01;7.07;;;1.15;;
77206;SDS011;66190;50.708;7.906;2022-12-29T15:18:58;8.90;;;1.33;;
77206;SDS011;66190;50.708;7.906;2022-12-29T15:21:24;6.85;;;1.10;;
77206;SDS011;66190;50.708;7.906;2022-12-29T15:23:58;7.25;;;1.35;;
77206;SDS011;66190;50.708;7.906;2022-12-29T15:26:36;8.73;;;0.90;;
77206;SDS011;66190;50.708;7.906;2022-12-29T15:29:03;6.68;;;0.82;;
77206;SDS011;66190;50.708;7.906;2022-12-29T15:31:29;5.17;;;0.90;;
77206;SDS011;66190;50.708;7.906;2022-12-29T15:34:01;6.22;;;1.15;;
77206;SDS011;66190;50.708;7.906;2022-12-29T15:36:37;6.50;;;0.82;;
77206;SDS011;66190;50.708;7.906;2022-12-29T15:42:03;6.38;;;0.98;;
77206;SDS011;66190;50.708;7.906;2022-12-29T15:44:37;6.30;;;1.02;;
77206;SDS011;66190;50.708;7.906;2022-12-29T15:47:08;5.68;;;1.00;;
77206;SDS011;66190;50.708;7.906;2022-12-29T15:50:03;5.90;;;1.10;;
77206;SDS011;66190;50.708;7.906;2022-12-29T15:52:31;4.82;;;0.93;;
77206;SDS011;66190;50.708;7.906;2022-12-29T15:54:58;6.00;;;1.17;;
77206;SDS011;66190;50.708;7.906;2022-12-29T15:57:29;8.15;;;1.25;;
77206;SDS011;66190;50.708;7.906;2022-12-29T16:00:01;9.60;;;1.40;;
77206;SDS011;66190;50.708;7.906;2022-12-29T16:02:28;8.82;;;1.23;;
77206;SDS011;66190;50.708;7.906;2022-12-29T16:04:55;6.20;;;1.20;;
77206;SDS011;66190;50.708;7.906;2022-12-29T16:07:33;6.15;;;1.55;;
77206;SDS011;66190;50.708;7.906;2022-12-29T16:10:01;7.30;;;1.15;;
77206;SDS011;66190;50.708;7.906;2022-12-29T16:12:34;7.60;;;1.13;;
77206;SDS011;66190;50.708;7.906;2022-12-29T16:15:19;6.70;;;1.20;;
77206;SDS011;66190;50.708;7.906;2022-12-29T16:17:49;8.95;;;1.30;;
77206;SDS011;66190;50.708;7.906;2022-12-29T16:20:19;8.45;;;1.45;;
77206;SDS011;66190;50.708;7.906;2022-12-29T16:22:56;7.10;;;1.60;;
77206;SDS011;66190;50.708;7.906;2022-12-29T16:25:25;5.95;;;1.00;;
77206;SDS011;66190;50.708;7.906;2022-12-29T16:27:56;8.13;;;1.80;;
77206;SDS011;66190;50.708;7.906;2022-12-29T16:30:24;8.82;;;1.52;;
77206;SDS011;66190;50.708;7.906;2022-12-29T16:32:52;8.00;;;1.33;;
77206;SDS011;66190;50.708;7.906;2022-12-29T16:40:49;9.25;;;2.40;;
77206;SDS011;66190;50.708;7.906;2022-12-29T16:43:26;8.20;;;2.05;;
77206;SDS011;66190;50.708;7.906;2022-12-29T16:48:19;9.63;;;2.20;;
77206;SDS011;66190;50.708;7.906;2022-12-29T16:50:49;7.80;;;1.67;;
77206;SDS011;66190;50.708;7.906;2022-12-29T16:53:21;7.53;;;2.23;;
77206;SDS011;66190;50.708;7.906;2022-12-29T16:55:54;8.18;;;1.55;;
77206;SDS011;66190;50.708;7.906;2022-12-29T16:58:23;11.77;;;3.13;;
77206;SDS011;66190;50.708;7.906;2022-12-29T17:00:55;7.05;;;2.13;;
77206;SDS011;66190;50.708;7.906;2022-12-29T17:03:22;7.78;;;1.83;;
77206;SDS011;66190;50.708;7.906;2022-12-29T17:05:51;8.63;;;1.97;;
77206;SDS011;66190;50.708;7.906;2022-12-29T17:08:27;10.85;;;3.40;;
77206;SDS011;66190;50.708;7.906;2022-12-29T17:10:54;10.38;;;2.53;;
77206;SDS011;66190;50.708;7.906;2022-12-29T17:13:40;13.20;;;4.53;;
77206;SDS011;66190;50.708;7.906;2022-12-29T17:16:06;15.68;;;8.77;;
77206;SDS011;66190;50.708;7.906;2022-12-29T17:18:34;17.50;;;8.10;;
77206;SDS011;66190;50.708;7.906;2022-12-29T17:21:00;12.35;;;4.90;;
77206;SDS011;66190;50.708;7.906;2022-12-29T17:23:26;35.25;;;16.27;;
77206;SDS011;66190;50.708;7.906;2022-12-29T17:25:55;16.02;;;6.57;;
77206;SDS011;66190;50.708;7.906;2022-12-29T17:28:21;9.40;;;2.42;;
77206;SDS011;66190;50.708;7.906;2022-12-29T17:30:50;12.27;;;3.25;;